sensor_id;sensor_type;location;lat;lon;timestamp;P1;durP1;ratioP1;P2;durP2;ratioP2
50379;SDS011;37474;59.468;18.040;2024-03-06T00:01:48;12.33;;;5.33;;
50379;SDS011;37474;59.468;18.040;2024-03-06T00:04:16;10.80;;;5.00;;
50379;SDS011;37474;59.468;18.040;2024-03-06T00:06:45;10.40;;;4.83;;
50379;SDS011;37474;59.468;18.040;2024-03-06T00:09:15;10.13;;;4.80;;
50379;SDS011;37474;59.468;18.040;2024-03-06T00:11:42;11.77;;;5.23;;
50379;SDS011;37474;59.468;18.040;2024-03-06T00:14:11;10.53;;;4.77;;
50379;SDS011;37474;59.468;18.040;2024-03-06T00:16:40;15.30;;;4.93;;
50379;SDS011;37474;59.468;18.040;2024-03-06T00:19:08;8.83;;;4.83;;
50379;SDS011;37474;59.468;18.040;2024-03-06T00:21:39;8.93;;;4.90;;
50379;SDS011;37474;59.468;18.040;2024-03-06T00:24:07;8.30;;;4.80;;
50379;SDS011;37474;59.468;18.040;2024-03-06T00:26:36;11.40;;;5.13;;
50379;SDS011;37474;59.468;18.040;2024-03-06T00:29:07;12.37;;;5.30;;
50379;SDS011;37474;59.468;18.040;2024-03-06T00:31:36;13.67;;;4.93;;
50379;SDS011;37474;59.468;18.040;2024-03-06T00:34:04;10.50;;;4.40;;
50379;SDS011;37474;59.468;18.040;2024-03-06T00:36:32;7.87;;;4.80;;
50379;SDS011;37474;59.468;18.040;2024-03-06T00:39:00;8.33;;;4.60;;
50379;SDS011;37474;59.468;18.040;2024-03-06T00:44:00;9.27;;;4.77;;
50379;SDS011;37474;59.468;18.040;2024-03-06T00:46:28;8.55;;;4.28;;
50379;SDS011;37474;59.468;18.040;2024-03-06T00:48:56;10.97;;;4.70;;
50379;SDS011;37474;59.468;18.040;2024-03-06T00:51:24;12.57;;;5.10;;
50379;SDS011;37474;59.468;18.040;2024-03-06T00:54:07;10.87;;;4.97;;
50379;SDS011;37474;59.468;18.040;2024-03-06T00:56:36;9.50;;;4.63;;
50379;SDS011;37474;59.468;18.040;2024-03-06T00:59:07;9.10;;;4.40;;
50379;SDS011;37474;59.468;18.040;2024-03-06T01:01:35;12.73;;;5.40;;
50379;SDS011;37474;59.468;18.040;2024-03-06T01:04:03;12.07;;;4.87;;
50379;SDS011;37474;59.468;18.040;2024-03-06T01:06:32;9.53;;;4.87;;
50379;SDS011;37474;59.468;18.040;2024-03-06T01:09:00;9.03;;;5.00;;
50379;SDS011;37474;59.468;18.040;2024-03-06T01:11:28;11.57;;;5.13;;
50379;SDS011;37474;59.468;18.040;2024-03-06T01:13:56;8.50;;;4.80;;
50379;SDS011;37474;59.468;18.040;2024-03-06T01:16:25;16.10;;;5.30;;
50379;SDS011;37474;59.468;18.040;2024-03-06T01:18:53;9.17;;;4.83;;
50379;SDS011;37474;59.468;18.040;2024-03-06T01:21:21;10.20;;;5.50;;
50379;SDS011;37474;59.468;18.040;2024-03-06T01:23:49;13.37;;;5.80;;
50379;SDS011;37474;59.468;18.040;2024-03-06T01:26:17;10.80;;;5.07;;
50379;SDS011;37474;59.468;18.040;2024-03-06T01:28:45;14.60;;;5.97;;
50379;SDS011;37474;59.468;18.040;2024-03-06T01:31:13;13.80;;;6.23;;
50379;SDS011;37474;59.468;18.040;2024-03-06T01:33:43;12.13;;;6.13;;
50379;SDS011;37474;59.468;18.040;2024-03-06T01:36:11;11.05;;;5.50;;
50379;SDS011;37474;59.468;18.040;2024-03-06T01:38:39;13.47;;;6.13;;
50379;SDS011;37474;59.468;18.040;2024-03-06T01:41:08;11.40;;;5.40;;
50379;SDS011;37474;59.468;18.040;2024-03-06T01:43:36;14.57;;;6.37;;
50379;SDS011;37474;59.468;18.040;2024-03-06T01:46:05;15.82;;;6.70;;
50379;SDS011;37474;59.468;18.040;2024-03-06T01:48:34;14.33;;;6.17;;
50379;SDS011;37474;59.468;18.040;2024-03-06T01:51:04;16.80;;;6.03;;
50379;SDS011;37474;59.468;18.040;2024-03-06T01:53:32;14.63;;;6.03;;
50379;SDS011;37474;59.468;18.040;2024-03-06T01:56:02;14.10;;;6.10;;
50379;SDS011;37474;59.468;18.040;2024-03-06T01:58:32;19.75;;;6.70;;
50379;SDS011;37474;59.468;18.040;2024-03-06T02:01:01;15.03;;;6.27;;
50379;SDS011;37474;59.468;18.040;2024-03-06T02:03:32;13.23;;;6.23;;
50379;SDS011;37474;59.468;18.040;2024-03-06T02:06:01;14.87;;;6.23;;
50379;SDS011;37474;59.468;18.040;2024-03-06T02:08:32;11.90;;;5.63;;
50379;SDS011;37474;59.468;18.040;2024-03-06T02:11:00;13.27;;;5.63;;
50379;SDS011;37474;59.468;18.040;2024-03-06T02:13:30;13.25;;;6.00;;
50379;SDS011;37474;59.468;18.040;2024-03-06T02:15:58;14.90;;;6.23;;
50379;SDS011;37474;59.468;18.040;2024-03-06T02:18:26;16.97;;;5.70;;
50379;SDS011;37474;59.468;18.040;2024-03-06T02:20:56;13.47;;;6.03;;
50379;SDS011;37474;59.468;18.040;2024-03-06T02:23:24;14.67;;;6.20;;
50379;SDS011;37474;59.468;18.040;2024-03-06T02:25:54;17.37;;;5.90;;
50379;SDS011;37474;59.468;18.040;2024-03-06T02:28:23;17.63;;;6.53;;
50379;SDS011;37474;59.468;18.040;2024-03-06T02:30:52;12.50;;;5.30;;
50379;SDS011;37474;59.468;18.040;2024-03-06T02:33:20;12.27;;;5.70;;
50379;SDS011;37474;59.468;18.040;2024-03-06T02:35:48;14.60;;;6.30;;
50379;SDS011;37474;59.468;18.040;2024-03-06T02:38:17;17.43;;;6.30;;
50379;SDS011;37474;59.468;18.040;2024-03-06T02:40:45;14.43;;;5.80;;
50379;SDS011;37474;59.468;18.040;2024-03-06T02:43:14;13.17;;;5.43;;
50379;SDS011;37474;59.468;18.040;2024-03-06T02:45:42;12.47;;;5.63;;
50379;SDS011;37474;59.468;18.040;2024-03-06T02:48:11;12.90;;;5.33;;
50379;SDS011;37474;59.468;18.040;2024-03-06T02:50:39;13.60;;;5.77;;
50379;SDS011;37474;59.468;18.040;2024-03-06T02:53:07;16.30;;;5.50;;
50379;SDS011;37474;59.468;18.040;2024-03-06T02:55:36;13.53;;;5.57;;
50379;SDS011;37474;59.468;18.040;2024-03-06T02:58:04;14.07;;;5.70;;
50379;SDS011;37474;59.468;18.040;2024-03-06T03:00:32;13.40;;;5.00;;
50379;SDS011;37474;59.468;18.040;2024-03-06T03:03:00;13.13;;;5.30;;
50379;SDS011;37474;59.468;18.040;2024-03-06T03:05:28;9.63;;;4.90;;
50379;SDS011;37474;59.468;18.040;2024-03-06T03:07:57;13.10;;;4.93;;
50379;SDS011;37474;59.468;18.040;2024-03-06T03:10:25;10.97;;;4.83;;
50379;SDS011;37474;59.468;18.040;2024-03-06T03:12:54;11.97;;;5.00;;
50379;SDS011;37474;59.468;18.040;2024-03-06T03:15:22;11.77;;;4.93;;
50379;SDS011;37474;59.468;18.040;2024-03-06T03:17:50;12.00;;;5.27;;
50379;SDS011;37474;59.468;18.040;2024-03-06T03:20:18;11.03;;;5.17;;
50379;SDS011;37474;59.468;18.040;2024-03-06T03:22:47;12.50;;;5.50;;
50379;SDS011;37474;59.468;18.040;2024-03-06T03:25:15;13.07;;;5.07;;
50379;SDS011;37474;59.468;18.040;2024-03-06T03:27:43;15.70;;;5.40;;
50379;SDS011;37474;59.468;18.040;2024-03-06T03:30:13;10.57;;;4.40;;
50379;SDS011;37474;59.468;18.040;2024-03-06T03:35:10;14.17;;;4.97;;
50379;SDS011;37474;59.468;18.040;2024-03-06T03:37:38;10.57;;;4.63;;
50379;SDS011;37474;59.468;18.040;2024-03-06T03:40:07;14.70;;;4.80;;
50379;SDS011;37474;59.468;18.040;2024-03-06T03:42:38;10.40;;;4.80;;
50379;SDS011;37474;59.468;18.040;2024-03-06T03:45:06;10.50;;;4.60;;
50379;SDS011;37474;59.468;18.040;2024-03-06T03:47:35;10.03;;;4.90;;
50379;SDS011;37474;59.468;18.040;2024-03-06T03:50:04;13.48;;;4.65;;
50379;SDS011;37474;59.468;18.040;2024-03-06T03:52:37;10.40;;;4.90;;
50379;SDS011;37474;59.468;18.040;2024-03-06T03:55:08;13.57;;;4.93;;
50379;SDS011;37474;59.468;18.040;2024-03-06T03:57:42;12.33;;;4.90;;
50379;SDS011;37474;59.468;18.040;2024-03-06T04:00:10;11.47;;;4.73;;
50379;SDS011;37474;59.468;18.040;2024-03-06T04:02:40;12.67;;;5.10;;
50379;SDS011;37474;59.468;18.040;2024-03-06T04:05:09;13.13;;;5.45;;
50379;SDS011;37474;59.468;18.040;2024-03-06T04:07:37;11.73;;;5.30;;
50379;SDS011;37474;59.468;18.040;2024-03-06T04:10:06;10.03;;;4.47;;
50379;SDS011;37474;59.468;18.040;2024-03-06T04:12:37;11.53;;;5.37;;
50379;SDS011;37474;59.468;18.040;2024-03-06T04:15:06;13.00;;;4.93;;
50379;SDS011;37474;59.468;18.040;2024-03-06T04:17:35;13.60;;;4.80;;
50379;SDS011;37474;59.468;18.040;2024-03-06T04:20:05;10.03;;;4.50;;
50379;SDS011;37474;59.468;18.040;2024-03-06T04:22:34;10.60;;;4.40;;
50379;SDS011;37474;59.468;18.040;2024-03-06T04:25:03;10.47;;;5.27;;
50379;SDS011;37474;59.468;18.040;2024-03-06T04:27:31;12.97;;;5.33;;
50379;SDS011;37474;59.468;18.040;2024-03-06T04:30:00;12.00;;;5.10;;
50379;SDS011;37474;59.468;18.040;2024-03-06T04:32:28;11.47;;;4.73;;
50379;SDS011;37474;59.468;18.040;2024-03-06T04:34:56;8.40;;;4.00;;
50379;SDS011;37474;59.468;18.040;2024-03-06T04:37:26;9.97;;;4.53;;
50379;SDS011;37474;59.468;18.040;2024-03-06T04:39:56;12.63;;;5.27;;
50379;SDS011;37474;59.468;18.040;2024-03-06T04:42:24;9.90;;;4.17;;
50379;SDS011;37474;59.468;18.040;2024-03-06T04:44:52;9.20;;;4.07;;
50379;SDS011;37474;59.468;18.040;2024-03-06T04:47:23;12.80;;;4.80;;
50379;SDS011;37474;59.468;18.040;2024-03-06T04:49:55;14.67;;;5.13;;
50379;SDS011;37474;59.468;18.040;2024-03-06T04:52:25;8.30;;;4.23;;
50379;SDS011;37474;59.468;18.040;2024-03-06T04:54:55;12.00;;;4.60;;
50379;SDS011;37474;59.468;18.040;2024-03-06T04:57:23;9.17;;;4.13;;
50379;SDS011;37474;59.468;18.040;2024-03-06T04:59:50;10.53;;;4.70;;
50379;SDS011;37474;59.468;18.040;2024-03-06T05:02:19;9.90;;;4.17;;
50379;SDS011;37474;59.468;18.040;2024-03-06T05:04:49;9.15;;;4.22;;
50379;SDS011;37474;59.468;18.040;2024-03-06T05:07:35;10.63;;;4.07;;
50379;SDS011;37474;59.468;18.040;2024-03-06T05:10:21;11.70;;;4.83;;
50379;SDS011;37474;59.468;18.040;2024-03-06T05:13:06;8.47;;;4.23;;
50379;SDS011;37474;59.468;18.040;2024-03-06T05:15:55;9.33;;;4.20;;
50379;SDS011;37474;59.468;18.040;2024-03-06T05:18:40;9.17;;;4.13;;
50379;SDS011;37474;59.468;18.040;2024-03-06T05:21:26;13.87;;;4.77;;
50379;SDS011;37474;59.468;18.040;2024-03-06T05:24:13;9.97;;;4.93;;
50379;SDS011;37474;59.468;18.040;2024-03-06T05:26:59;12.93;;;5.17;;
50379;SDS011;37474;59.468;18.040;2024-03-06T05:29:44;12.30;;;4.97;;
50379;SDS011;37474;59.468;18.040;2024-03-06T05:32:29;9.73;;;4.73;;
50379;SDS011;37474;59.468;18.040;2024-03-06T05:35:14;13.00;;;5.07;;
50379;SDS011;37474;59.468;18.040;2024-03-06T05:38:00;14.03;;;4.83;;
50379;SDS011;37474;59.468;18.040;2024-03-06T05:40:48;10.20;;;4.90;;
50379;SDS011;37474;59.468;18.040;2024-03-06T05:43:33;13.00;;;4.27;;
50379;SDS011;37474;59.468;18.040;2024-03-06T05:46:18;9.77;;;4.83;;
50379;SDS011;37474;59.468;18.040;2024-03-06T05:49:04;14.00;;;4.73;;
50379;SDS011;37474;59.468;18.040;2024-03-06T05:51:49;10.67;;;4.60;;
50379;SDS011;37474;59.468;18.040;2024-03-06T05:54:35;10.50;;;5.57;;
50379;SDS011;37474;59.468;18.040;2024-03-06T05:57:22;9.23;;;4.73;;
50379;SDS011;37474;59.468;18.040;2024-03-06T06:00:08;14.07;;;5.20;;
50379;SDS011;37474;59.468;18.040;2024-03-06T06:05:06;10.27;;;4.40;;
50379;SDS011;37474;59.468;18.040;2024-03-06T06:07:49;12.93;;;4.90;;
50379;SDS011;37474;59.468;18.040;2024-03-06T06:10:17;10.13;;;5.10;;
50379;SDS011;37474;59.468;18.040;2024-03-06T06:12:49;10.02;;;4.63;;
50379;SDS011;37474;59.468;18.040;2024-03-06T06:15:17;10.07;;;4.72;;
50379;SDS011;37474;59.468;18.040;2024-03-06T06:17:45;10.37;;;4.40;;
50379;SDS011;37474;59.468;18.040;2024-03-06T06:20:13;13.33;;;5.20;;
50379;SDS011;37474;59.468;18.040;2024-03-06T06:22:43;16.23;;;5.85;;
50379;SDS011;37474;59.468;18.040;2024-03-06T06:25:11;12.33;;;5.87;;
50379;SDS011;37474;59.468;18.040;2024-03-06T06:27:42;10.23;;;4.97;;
50379;SDS011;37474;59.468;18.040;2024-03-06T06:30:12;10.40;;;5.23;;
50379;SDS011;37474;59.468;18.040;2024-03-06T06:32:40;17.02;;;5.32;;
50379;SDS011;37474;59.468;18.040;2024-03-06T06:35:10;15.27;;;6.30;;
50379;SDS011;37474;59.468;18.040;2024-03-06T06:40:08;9.67;;;4.77;;
50379;SDS011;37474;59.468;18.040;2024-03-06T06:42:43;11.50;;;5.53;;
50379;SDS011;37474;59.468;18.040;2024-03-06T06:45:15;13.03;;;5.50;;
50379;SDS011;37474;59.468;18.040;2024-03-06T06:47:43;10.33;;;5.20;;
50379;SDS011;37474;59.468;18.040;2024-03-06T06:50:12;9.40;;;5.00;;
50379;SDS011;37474;59.468;18.040;2024-03-06T06:52:40;10.07;;;5.27;;
50379;SDS011;37474;59.468;18.040;2024-03-06T06:55:08;9.60;;;4.63;;
50379;SDS011;37474;59.468;18.040;2024-03-06T06:57:38;10.15;;;4.30;;
50379;SDS011;37474;59.468;18.040;2024-03-06T07:00:06;10.13;;;4.83;;
50379;SDS011;37474;59.468;18.040;2024-03-06T07:02:39;10.57;;;4.83;;
50379;SDS011;37474;59.468;18.040;2024-03-06T07:05:08;12.52;;;5.07;;
50379;SDS011;37474;59.468;18.040;2024-03-06T07:07:37;9.07;;;4.33;;
50379;SDS011;37474;59.468;18.040;2024-03-06T07:10:06;16.00;;;4.50;;
50379;SDS011;37474;59.468;18.040;2024-03-06T07:12:35;14.93;;;5.33;;
50379;SDS011;37474;59.468;18.040;2024-03-06T07:15:03;10.07;;;4.63;;
50379;SDS011;37474;59.468;18.040;2024-03-06T07:17:33;9.57;;;4.30;;
50379;SDS011;37474;59.468;18.040;2024-03-06T07:20:03;11.40;;;4.03;;
50379;SDS011;37474;59.468;18.040;2024-03-06T07:22:32;6.40;;;3.63;;
50379;SDS011;37474;59.468;18.040;2024-03-06T07:25:01;7.57;;;4.20;;
50379;SDS011;37474;59.468;18.040;2024-03-06T07:27:29;7.20;;;3.43;;
50379;SDS011;37474;59.468;18.040;2024-03-06T07:29:58;9.13;;;4.10;;
50379;SDS011;37474;59.468;18.040;2024-03-06T07:32:26;11.90;;;3.80;;
50379;SDS011;37474;59.468;18.040;2024-03-06T07:34:54;6.70;;;3.53;;
50379;SDS011;37474;59.468;18.040;2024-03-06T07:37:26;8.20;;;3.00;;
50379;SDS011;37474;59.468;18.040;2024-03-06T07:39:54;9.87;;;3.60;;
50379;SDS011;37474;59.468;18.040;2024-03-06T07:42:22;8.93;;;3.50;;
50379;SDS011;37474;59.468;18.040;2024-03-06T07:44:50;7.83;;;3.37;;
50379;SDS011;37474;59.468;18.040;2024-03-06T07:47:18;6.97;;;3.10;;
50379;SDS011;37474;59.468;18.040;2024-03-06T07:49:47;6.78;;;2.78;;
50379;SDS011;37474;59.468;18.040;2024-03-06T07:52:16;9.60;;;3.27;;
50379;SDS011;37474;59.468;18.040;2024-03-06T07:54:46;5.03;;;2.90;;
50379;SDS011;37474;59.468;18.040;2024-03-06T07:57:14;10.02;;;3.20;;
50379;SDS011;37474;59.468;18.040;2024-03-06T07:59:42;11.00;;;4.47;;
50379;SDS011;37474;59.468;18.040;2024-03-06T08:02:10;9.50;;;3.93;;
50379;SDS011;37474;59.468;18.040;2024-03-06T08:04:38;8.50;;;3.40;;
50379;SDS011;37474;59.468;18.040;2024-03-06T08:07:06;8.67;;;2.87;;
50379;SDS011;37474;59.468;18.040;2024-03-06T08:09:36;11.43;;;2.40;;
50379;SDS011;37474;59.468;18.040;2024-03-06T08:12:06;6.43;;;2.50;;
50379;SDS011;37474;59.468;18.040;2024-03-06T08:17:03;6.27;;;2.47;;
50379;SDS011;37474;59.468;18.040;2024-03-06T08:19:31;7.43;;;2.80;;
50379;SDS011;37474;59.468;18.040;2024-03-06T08:21:59;7.73;;;2.50;;
50379;SDS011;37474;59.468;18.040;2024-03-06T08:24:32;7.77;;;2.27;;
50379;SDS011;37474;59.468;18.040;2024-03-06T08:26:59;9.10;;;2.93;;
50379;SDS011;37474;59.468;18.040;2024-03-06T08:29:29;12.67;;;2.90;;
50379;SDS011;37474;59.468;18.040;2024-03-06T08:31:58;7.47;;;2.72;;
50379;SDS011;37474;59.468;18.040;2024-03-06T08:34:27;6.82;;;2.40;;
50379;SDS011;37474;59.468;18.040;2024-03-06T08:36:58;9.07;;;2.60;;
50379;SDS011;37474;59.468;18.040;2024-03-06T08:39:26;6.57;;;2.60;;
50379;SDS011;37474;59.468;18.040;2024-03-06T08:41:54;10.17;;;2.77;;
50379;SDS011;37474;59.468;18.040;2024-03-06T08:44:24;8.40;;;2.78;;
50379;SDS011;37474;59.468;18.040;2024-03-06T08:46:53;8.17;;;3.10;;
50379;SDS011;37474;59.468;18.040;2024-03-06T08:49:21;6.60;;;2.90;;
50379;SDS011;37474;59.468;18.040;2024-03-06T08:51:49;11.73;;;2.60;;
50379;SDS011;37474;59.468;18.040;2024-03-06T08:54:17;8.33;;;3.03;;
50379;SDS011;37474;59.468;18.040;2024-03-06T08:56:45;8.93;;;2.73;;
50379;SDS011;37474;59.468;18.040;2024-03-06T08:59:13;7.03;;;2.80;;
50379;SDS011;37474;59.468;18.040;2024-03-06T09:01:41;6.13;;;3.00;;
50379;SDS011;37474;59.468;18.040;2024-03-06T09:04:11;4.23;;;2.17;;
50379;SDS011;37474;59.468;18.040;2024-03-06T09:06:39;5.30;;;2.50;;
50379;SDS011;37474;59.468;18.040;2024-03-06T09:09:07;13.63;;;2.63;;
50379;SDS011;37474;59.468;18.040;2024-03-06T09:11:35;5.30;;;2.20;;
50379;SDS011;37474;59.468;18.040;2024-03-06T09:14:04;8.37;;;2.23;;
50379;SDS011;37474;59.468;18.040;2024-03-06T09:16:32;6.47;;;2.40;;
50379;SDS011;37474;59.468;18.040;2024-03-06T09:19:00;5.53;;;2.40;;
50379;SDS011;37474;59.468;18.040;2024-03-06T09:21:29;6.10;;;2.33;;
50379;SDS011;37474;59.468;18.040;2024-03-06T09:23:57;4.30;;;2.13;;
50379;SDS011;37474;59.468;18.040;2024-03-06T09:26:25;4.33;;;2.30;;
50379;SDS011;37474;59.468;18.040;2024-03-06T09:28:53;8.47;;;2.60;;
50379;SDS011;37474;59.468;18.040;2024-03-06T09:31:21;4.77;;;2.47;;
50379;SDS011;37474;59.468;18.040;2024-03-06T09:33:49;7.20;;;2.80;;
50379;SDS011;37474;59.468;18.040;2024-03-06T09:36:17;10.40;;;2.93;;
50379;SDS011;37474;59.468;18.040;2024-03-06T09:38:47;8.57;;;2.80;;
50379;SDS011;37474;59.468;18.040;2024-03-06T09:41:15;8.13;;;2.60;;
50379;SDS011;37474;59.468;18.040;2024-03-06T09:43:43;9.77;;;2.90;;
50379;SDS011;37474;59.468;18.040;2024-03-06T09:46:12;4.43;;;2.30;;
50379;SDS011;37474;59.468;18.040;2024-03-06T09:48:41;8.43;;;2.23;;
50379;SDS011;37474;59.468;18.040;2024-03-06T09:51:13;5.90;;;2.23;;
50379;SDS011;37474;59.468;18.040;2024-03-06T09:53:41;6.03;;;2.47;;
50379;SDS011;37474;59.468;18.040;2024-03-06T09:56:11;7.50;;;2.63;;
50379;SDS011;37474;59.468;18.040;2024-03-06T09:58:39;9.95;;;2.78;;
50379;SDS011;37474;59.468;18.040;2024-03-06T10:01:08;8.63;;;2.80;;
50379;SDS011;37474;59.468;18.040;2024-03-06T10:03:40;7.27;;;3.00;;
50379;SDS011;37474;59.468;18.040;2024-03-06T10:06:08;8.53;;;3.30;;
50379;SDS011;37474;59.468;18.040;2024-03-06T10:08:41;11.60;;;2.87;;
50379;SDS011;37474;59.468;18.040;2024-03-06T10:11:12;7.27;;;2.60;;
50379;SDS011;37474;59.468;18.040;2024-03-06T10:13:40;8.57;;;2.78;;
50379;SDS011;37474;59.468;18.040;2024-03-06T10:16:08;4.87;;;2.47;;
50379;SDS011;37474;59.468;18.040;2024-03-06T10:18:37;7.75;;;3.22;;
50379;SDS011;37474;59.468;18.040;2024-03-06T10:21:06;6.87;;;2.87;;
50379;SDS011;37474;59.468;18.040;2024-03-06T10:23:34;8.23;;;3.00;;
50379;SDS011;37474;59.468;18.040;2024-03-06T10:26:06;12.03;;;3.10;;
50379;SDS011;37474;59.468;18.040;2024-03-06T10:28:37;7.90;;;2.78;;
50379;SDS011;37474;59.468;18.040;2024-03-06T10:31:05;7.03;;;2.87;;
50379;SDS011;37474;59.468;18.040;2024-03-06T10:33:34;7.97;;;2.60;;
50379;SDS011;37474;59.468;18.040;2024-03-06T10:36:04;7.68;;;2.50;;
50379;SDS011;37474;59.468;18.040;2024-03-06T10:38:33;7.53;;;2.50;;
50379;SDS011;37474;59.468;18.040;2024-03-06T10:41:06;4.97;;;2.10;;
50379;SDS011;37474;59.468;18.040;2024-03-06T10:43:42;6.13;;;2.57;;
50379;SDS011;37474;59.468;18.040;2024-03-06T10:46:15;13.83;;;2.40;;
50379;SDS011;37474;59.468;18.040;2024-03-06T10:48:47;4.37;;;2.07;;
50379;SDS011;37474;59.468;18.040;2024-03-06T10:51:18;10.00;;;2.07;;
50379;SDS011;37474;59.468;18.040;2024-03-06T10:53:47;6.00;;;2.03;;
50379;SDS011;37474;59.468;18.040;2024-03-06T10:56:17;5.70;;;1.98;;
50379;SDS011;37474;59.468;18.040;2024-03-06T10:58:47;7.60;;;2.20;;
50379;SDS011;37474;59.468;18.040;2024-03-06T11:01:18;12.90;;;2.90;;
50379;SDS011;37474;59.468;18.040;2024-03-06T11:03:47;6.07;;;1.77;;
50379;SDS011;37474;59.468;18.040;2024-03-06T11:06:15;4.87;;;1.83;;
50379;SDS011;37474;59.468;18.040;2024-03-06T11:08:44;5.70;;;1.80;;
50379;SDS011;37474;59.468;18.040;2024-03-06T11:11:19;6.70;;;1.87;;
50379;SDS011;37474;59.468;18.040;2024-03-06T11:13:50;5.13;;;1.70;;
50379;SDS011;37474;59.468;18.040;2024-03-06T11:16:26;4.93;;;1.63;;
50379;SDS011;37474;59.468;18.040;2024-03-06T11:19:04;4.77;;;1.57;;
50379;SDS011;37474;59.468;18.040;2024-03-06T11:21:34;5.40;;;2.53;;
50379;SDS011;37474;59.468;18.040;2024-03-06T11:24:15;4.23;;;2.00;;
50379;SDS011;37474;59.468;18.040;2024-03-06T11:26:47;7.30;;;1.97;;
50379;SDS011;37474;59.468;18.040;2024-03-06T11:29:18;5.25;;;2.05;;
50379;SDS011;37474;59.468;18.040;2024-03-06T11:31:59;8.27;;;2.37;;
50379;SDS011;37474;59.468;18.040;2024-03-06T11:34:29;7.47;;;2.20;;
50379;SDS011;37474;59.468;18.040;2024-03-06T11:37:05;4.97;;;2.10;;
50379;SDS011;37474;59.468;18.040;2024-03-06T11:39:37;5.43;;;2.10;;
50379;SDS011;37474;59.468;18.040;2024-03-06T11:42:08;7.43;;;1.93;;
50379;SDS011;37474;59.468;18.040;2024-03-06T11:44:41;3.60;;;1.50;;
50379;SDS011;37474;59.468;18.040;2024-03-06T11:47:21;3.93;;;1.50;;
50379;SDS011;37474;59.468;18.040;2024-03-06T11:49:49;6.33;;;1.57;;
50379;SDS011;37474;59.468;18.040;2024-03-06T11:52:19;5.15;;;1.50;;
50379;SDS011;37474;59.468;18.040;2024-03-06T11:54:48;6.80;;;1.90;;
50379;SDS011;37474;59.468;18.040;2024-03-06T11:57:15;7.83;;;1.77;;
50379;SDS011;37474;59.468;18.040;2024-03-06T11:59:48;5.00;;;1.70;;
50379;SDS011;37474;59.468;18.040;2024-03-06T12:02:17;9.77;;;1.83;;
50379;SDS011;37474;59.468;18.040;2024-03-06T12:04:45;5.77;;;1.43;;
50379;SDS011;37474;59.468;18.040;2024-03-06T12:07:13;4.23;;;1.30;;
50379;SDS011;37474;59.468;18.040;2024-03-06T12:09:42;6.03;;;1.40;;
50379;SDS011;37474;59.468;18.040;2024-03-06T12:12:10;3.20;;;1.33;;
50379;SDS011;37474;59.468;18.040;2024-03-06T12:14:39;6.70;;;1.87;;
50379;SDS011;37474;59.468;18.040;2024-03-06T12:17:12;5.87;;;1.60;;
50379;SDS011;37474;59.468;18.040;2024-03-06T12:19:43;7.67;;;1.30;;
50379;SDS011;37474;59.468;18.040;2024-03-06T12:22:12;4.95;;;1.50;;
50379;SDS011;37474;59.468;18.040;2024-03-06T12:24:42;5.37;;;1.43;;
50379;SDS011;37474;59.468;18.040;2024-03-06T12:27:10;5.97;;;1.57;;
50379;SDS011;37474;59.468;18.040;2024-03-06T12:29:39;7.05;;;1.40;;
50379;SDS011;37474;59.468;18.040;2024-03-06T12:32:17;6.97;;;1.70;;
50379;SDS011;37474;59.468;18.040;2024-03-06T12:34:55;3.83;;;1.37;;
50379;SDS011;37474;59.468;18.040;2024-03-06T12:37:30;6.78;;;1.52;;
50379;SDS011;37474;59.468;18.040;2024-03-06T12:39:59;5.90;;;1.60;;
50379;SDS011;37474;59.468;18.040;2024-03-06T12:42:27;6.27;;;2.00;;
50379;SDS011;37474;59.468;18.040;2024-03-06T12:44:55;8.23;;;1.70;;
50379;SDS011;37474;59.468;18.040;2024-03-06T12:47:25;8.40;;;2.00;;
50379;SDS011;37474;59.468;18.040;2024-03-06T12:49:53;6.72;;;1.83;;
50379;SDS011;37474;59.468;18.040;2024-03-06T12:52:24;6.00;;;1.60;;
50379;SDS011;37474;59.468;18.040;2024-03-06T12:54:52;4.67;;;1.40;;
50379;SDS011;37474;59.468;18.040;2024-03-06T12:57:20;10.10;;;1.60;;
50379;SDS011;37474;59.468;18.040;2024-03-06T12:59:48;7.60;;;1.67;;
50379;SDS011;37474;59.468;18.040;2024-03-06T13:02:16;5.27;;;1.67;;
50379;SDS011;37474;59.468;18.040;2024-03-06T13:04:47;4.90;;;1.40;;
50379;SDS011;37474;59.468;18.040;2024-03-06T13:07:15;5.15;;;1.73;;
50379;SDS011;37474;59.468;18.040;2024-03-06T13:09:43;5.27;;;1.57;;
50379;SDS011;37474;59.468;18.040;2024-03-06T13:12:11;7.43;;;1.80;;
50379;SDS011;37474;59.468;18.040;2024-03-06T13:14:39;6.67;;;2.07;;
50379;SDS011;37474;59.468;18.040;2024-03-06T13:17:07;7.57;;;1.70;;
50379;SDS011;37474;59.468;18.040;2024-03-06T13:19:35;7.97;;;2.67;;
50379;SDS011;37474;59.468;18.040;2024-03-06T13:22:05;6.37;;;2.20;;
50379;SDS011;37474;59.468;18.040;2024-03-06T13:27:06;5.83;;;1.80;;
50379;SDS011;37474;59.468;18.040;2024-03-06T13:29:35;9.70;;;2.00;;
50379;SDS011;37474;59.468;18.040;2024-03-06T13:32:03;4.33;;;1.40;;
50379;SDS011;37474;59.468;18.040;2024-03-06T13:34:31;5.80;;;2.00;;
50379;SDS011;37474;59.468;18.040;2024-03-06T13:36:59;5.87;;;1.80;;
50379;SDS011;37474;59.468;18.040;2024-03-06T13:39:29;9.27;;;2.00;;
50379;SDS011;37474;59.468;18.040;2024-03-06T13:41:58;3.50;;;1.60;;
50379;SDS011;37474;59.468;18.040;2024-03-06T13:44:26;5.10;;;1.70;;
50379;SDS011;37474;59.468;18.040;2024-03-06T13:46:54;12.73;;;1.87;;
50379;SDS011;37474;59.468;18.040;2024-03-06T13:49:34;5.77;;;1.80;;
50379;SDS011;37474;59.468;18.040;2024-03-06T13:52:03;11.23;;;2.00;;
50379;SDS011;37474;59.468;18.040;2024-03-06T13:54:35;11.35;;;2.67;;
50379;SDS011;37474;59.468;18.040;2024-03-06T13:57:03;6.43;;;1.70;;
50379;SDS011;37474;59.468;18.040;2024-03-06T13:59:32;9.13;;;1.60;;
50379;SDS011;37474;59.468;18.040;2024-03-06T14:02:01;8.63;;;1.93;;
50379;SDS011;37474;59.468;18.040;2024-03-06T14:04:30;6.40;;;1.75;;
50379;SDS011;37474;59.468;18.040;2024-03-06T14:06:58;5.00;;;1.63;;
50379;SDS011;37474;59.468;18.040;2024-03-06T14:09:26;5.83;;;1.40;;
50379;SDS011;37474;59.468;18.040;2024-03-06T14:11:57;5.43;;;1.40;;
50379;SDS011;37474;59.468;18.040;2024-03-06T14:14:25;5.57;;;1.60;;
50379;SDS011;37474;59.468;18.040;2024-03-06T14:16:54;6.30;;;1.50;;
50379;SDS011;37474;59.468;18.040;2024-03-06T14:19:22;8.50;;;1.87;;
50379;SDS011;37474;59.468;18.040;2024-03-06T14:21:50;7.70;;;1.70;;
50379;SDS011;37474;59.468;18.040;2024-03-06T14:24:18;7.00;;;1.80;;
50379;SDS011;37474;59.468;18.040;2024-03-06T14:26:47;5.20;;;1.47;;
50379;SDS011;37474;59.468;18.040;2024-03-06T14:29:19;7.60;;;1.50;;
50379;SDS011;37474;59.468;18.040;2024-03-06T14:31:46;5.20;;;1.37;;
50379;SDS011;37474;59.468;18.040;2024-03-06T14:34:14;9.77;;;1.43;;
50379;SDS011;37474;59.468;18.040;2024-03-06T14:36:42;9.40;;;1.90;;
50379;SDS011;37474;59.468;18.040;2024-03-06T14:39:11;5.23;;;1.33;;
50379;SDS011;37474;59.468;18.040;2024-03-06T14:41:39;4.17;;;1.20;;
50379;SDS011;37474;59.468;18.040;2024-03-06T14:44:09;14.37;;;2.00;;
50379;SDS011;37474;59.468;18.040;2024-03-06T14:46:38;8.93;;;1.30;;
50379;SDS011;37474;59.468;18.040;2024-03-06T14:51:37;11.27;;;1.50;;
50379;SDS011;37474;59.468;18.040;2024-03-06T14:54:05;9.10;;;1.70;;
50379;SDS011;37474;59.468;18.040;2024-03-06T14:56:33;5.80;;;1.57;;
50379;SDS011;37474;59.468;18.040;2024-03-06T14:59:02;3.50;;;1.50;;
50379;SDS011;37474;59.468;18.040;2024-03-06T15:01:32;7.50;;;1.60;;
50379;SDS011;37474;59.468;18.040;2024-03-06T15:04:02;7.37;;;1.60;;